Time;durP1;ratioP1;P1;durP2;ratioP2;P2;SDS_P1;SDS_P2;PMS_P1;PMS_P2;Temp;Humidity;BMP_temperature;BMP_pressure;BME280_temperature;BME280_humidity;BME280_pressure;Samples;Min_cycle;Max_cycle;Signal;HPM_P1;HPM_P2
2022/03/14 00:00:45;;;;;;;27.80;17.98;;;;;;;;;;5075466;28;20028;-69
2022/03/14 00:03:12;;;;;;;30.20;17.45;;;;;;;;;;5096031;28;20691;-69
2022/03/14 00:05:38;;;;;;;25.50;17.38;;;;;;;;;;5075706;28;20118;-70
2022/03/14 00:08:05;;;;;;;27.73;17.45;;;;;;;;;;5097055;28;20081;-70
2022/03/14 00:10:31;;;;;;;25.48;17.15;;;;;;;;;;5096887;28;20026;-69
2022/03/14 00:12:58;;;;;;;26.30;17.02;;;;;;;;;;5093081;28;20027;-69
2022/03/14 00:15:29;;;;;;;29.88;17.52;;;;;;;;;;5094288;28;20024;-69
2022/03/14 00:17:56;;;;;;;27.55;17.58;;;;;;;;;;5106744;28;20027;-69
2022/03/14 00:20:23;;;;;;;26.50;17.73;;;;;;;;;;5100292;28;20481;-69
2022/03/14 00:22:49;;;;;;;27.20;18.02;;;;;;;;;;5079093;28;20024;-69
2022/03/14 00:25:15;;;;;;;26.33;17.40;;;;;;;;;;5077796;28;20068;-69
2022/03/14 00:27:42;;;;;;;27.65;18.50;;;;;;;;;;5092812;28;20047;-69
2022/03/14 00:30:10;;;;;;;25.65;18.10;;;;;;;;;;5092071;28;20039;-69
2022/03/14 00:32:36;;;;;;;24.55;15.88;;;;;;;;;;5080164;28;20020;-69
2022/03/14 00:35:07;;;;;;;25.75;16.70;;;;;;;;;;5078478;28;20055;-69
2022/03/14 00:37:33;;;;;;;25.42;17.33;;;;;;;;;;5078635;28;20387;-69
2022/03/14 00:39:59;;;;;;;25.02;16.38;;;;;;;;;;5093222;28;20039;-68
2022/03/14 00:42:25;;;;;;;21.35;13.98;;;;;;;;;;5094124;28;20590;-70
2022/03/14 00:44:51;;;;;;;25.13;15.02;;;;;;;;;;5105855;28;20027;-68
2022/03/14 00:47:18;;;;;;;20.65;14.68;;;;;;;;;;5100572;28;20024;-69
2022/03/14 00:49:45;;;;;;;21.30;14.43;;;;;;;;;;5096115;28;20024;-68
2022/03/14 00:52:11;;;;;;;24.77;15.93;;;;;;;;;;5094331;28;20039;-68
2022/03/14 00:54:38;;;;;;;24.90;15.10;;;;;;;;;;5101117;28;20500;-68
2022/03/14 00:57:04;;;;;;;20.50;13.20;;;;;;;;;;5095544;28;20098;-67
2022/03/14 00:59:30;;;;;;;21.08;13.32;;;;;;;;;;5098358;28;20035;-67
2022/03/14 01:01:56;;;;;;;22.90;13.88;;;;;;;;;;5082461;28;20548;-68
2022/03/14 01:04:22;;;;;;;20.55;13.00;;;;;;;;;;5082422;28;20127;-68
2022/03/14 01:06:48;;;;;;;21.67;13.35;;;;;;;;;;5095969;28;20043;-68
2022/03/14 01:09:15;;;;;;;18.77;12.82;;;;;;;;;;5099692;28;20032;-68
2022/03/14 01:11:41;;;;;;;21.55;13.27;;;;;;;;;;5100263;28;20107;-68
2022/03/14 01:14:07;;;;;;;24.52;15.88;;;;;;;;;;5100303;28;20012;-68
2022/03/14 01:16:34;;;;;;;22.08;14.25;;;;;;;;;;5082162;28;20361;-67
2022/03/14 01:19:00;;;;;;;21.85;14.43;;;;;;;;;;5096858;28;20465;-68
2022/03/14 01:21:28;;;;;;;23.60;15.60;;;;;;;;;;5098465;28;20073;-68
2022/03/14 01:23:54;;;;;;;20.67;14.93;;;;;;;;;;5109447;28;20028;-68
2022/03/14 01:26:20;;;;;;;22.98;14.27;;;;;;;;;;5103081;28;20028;-69
2022/03/14 01:28:48;;;;;;;21.98;13.85;;;;;;;;;;5099776;28;20101;-68
2022/03/14 01:31:14;;;;;;;22.20;14.77;;;;;;;;;;5098744;28;20452;-68
2022/03/14 01:33:40;;;;;;;20.40;14.40;;;;;;;;;;5096475;28;20137;-68
2022/03/14 01:36:06;;;;;;;22.13;14.27;;;;;;;;;;5080996;28;20028;-68
2022/03/14 01:38:32;;;;;;;23.48;15.02;;;;;;;;;;5082178;28;20446;-68
2022/03/14 01:40:59;;;;;;;21.20;14.25;;;;;;;;;;5081767;28;20024;-69
2022/03/14 01:43:26;;;;;;;22.20;14.60;;;;;;;;;;5082002;28;20026;-68
2022/03/14 01:45:58;;;;;;;18.85;13.32;;;;;;;;;;5094994;28;20031;-68
2022/03/14 01:48:25;;;;;;;20.92;13.93;;;;;;;;;;5092413;28;20043;-68
2022/03/14 01:50:51;;;;;;;23.08;15.10;;;;;;;;;;5099820;28;20021;-68
2022/03/14 01:53:19;;;;;;;24.52;15.65;;;;;;;;;;5099187;28;20016;-68
2022/03/14 01:55:45;;;;;;;26.08;16.00;;;;;;;;;;5106378;28;20032;-69
2022/03/14 01:58:11;;;;;;;22.20;14.68;;;;;;;;;;5097524;28;20072;-68
2022/03/14 02:00:37;;;;;;;23.20;15.60;;;;;;;;;;5096258;28;20084;-69
2022/03/14 02:03:03;;;;;;;24.02;15.32;;;;;;;;;;5109500;28;20118;-69
2022/03/14 02:05:29;;;;;;;23.83;15.13;;;;;;;;;;5101929;28;20579;-69
2022/03/14 02:07:58;;;;;;;23.35;15.18;;;;;;;;;;5081392;28;20028;-69
2022/03/14 02:10:24;;;;;;;23.70;15.57;;;;;;;;;;5097756;28;20019;-69
2022/03/14 02:12:50;;;;;;;25.30;15.82;;;;;;;;;;5094998;28;20464;-69
2022/03/14 02:15:16;;;;;;;23.83;15.52;;;;;;;;;;5098485;28;20095;-68
2022/03/14 02:17:42;;;;;;;22.38;14.88;;;;;;;;;;5098695;28;20024;-68
2022/03/14 02:20:08;;;;;;;22.27;14.35;;;;;;;;;;5081435;28;20107;-68
2022/03/14 02:22:34;;;;;;;21.73;14.40;;;;;;;;;;5081233;28;20380;-69
2022/03/14 02:25:01;;;;;;;21.95;14.65;;;;;;;;;;5095410;28;20035;-68
2022/03/14 02:27:27;;;;;;;25.30;15.30;;;;;;;;;;5078532;28;20038;-68
2022/03/14 02:29:53;;;;;;;24.58;15.57;;;;;;;;;;5098612;28;20505;-69
2022/03/14 02:32:19;;;;;;;22.45;14.77;;;;;;;;;;5098672;28;20024;-68
2022/03/14 02:34:45;;;;;;;23.92;16.05;;;;;;;;;;5081286;28;20034;-68
2022/03/14 02:37:11;;;;;;;22.98;15.02;;;;;;;;;;5079133;28;20047;-69
2022/03/14 02:39:38;;;;;;;24.60;15.18;;;;;;;;;;5095476;28;20020;-68
2022/03/14 02:42:04;;;;;;;24.58;16.45;;;;;;;;;;5109290;28;20539;-69
2022/03/14 02:44:31;;;;;;;25.40;15.15;;;;;;;;;;5100650;28;20438;-69
2022/03/14 02:46:58;;;;;;;24.88;15.88;;;;;;;;;;5098076;28;20099;-69
2022/03/14 02:49:24;;;;;;;22.17;14.80;;;;;;;;;;5098252;28;20468;-69
2022/03/14 02:51:51;;;;;;;22.40;14.85;;;;;;;;;;5094529;28;20027;-68
2022/03/14 02:54:17;;;;;;;24.43;15.97;;;;;;;;;;5085984;28;20011;-69
2022/03/14 02:56:43;;;;;;;22.90;14.55;;;;;;;;;;5094415;28;20133;-68
2022/03/14 02:59:10;;;;;;;23.40;14.77;;;;;;;;;;5103436;28;20020;-69
2022/03/14 03:01:36;;;;;;;22.83;15.07;;;;;;;;;;5098117;28;20051;-69
2022/03/14 03:04:02;;;;;;;21.70;14.73;;;;;;;;;;5077562;28;20481;-69
2022/03/14 03:06:28;;;;;;;20.92;14.63;;;;;;;;;;5077629;28;20459;-69
2022/03/14 03:08:54;;;;;;;27.15;16.02;;;;;;;;;;5106798;28;20020;-69
2022/03/14 03:11:21;;;;;;;24.58;16.08;;;;;;;;;;5101780;28;20489;-69
2022/03/14 03:13:47;;;;;;;22.80;16.02;;;;;;;;;;5098033;28;20096;-69
2022/03/14 03:16:15;;;;;;;22.58;14.75;;;;;;;;;;5096490;28;20026;-69
2022/03/14 03:18:41;;;;;;;23.65;15.00;;;;;;;;;;5093818;28;20128;-69
2022/03/14 03:21:07;;;;;;;25.50;15.85;;;;;;;;;;5108662;28;20027;-69
2022/03/14 03:23:34;;;;;;;22.77;14.75;;;;;;;;;;5099560;28;20027;-69
2022/03/14 03:26:00;;;;;;;25.35;15.05;;;;;;;;;;5079731;28;20016;-69
2022/03/14 03:28:26;;;;;;;21.55;14.85;;;;;;;;;;5097399;28;20039;-69
2022/03/14 03:30:53;;;;;;;24.73;15.82;;;;;;;;;;5093396;28;20419;-69
2022/03/14 03:33:19;;;;;;;24.23;14.77;;;;;;;;;;5108745;28;20062;-69
2022/03/14 03:35:45;;;;;;;23.17;15.18;;;;;;;;;;5079425;28;20024;-69
2022/03/14 03:38:11;;;;;;;22.48;15.25;;;;;;;;;;5097426;28;20397;-69
2022/03/14 03:40:37;;;;;;;23.90;15.93;;;;;;;;;;5097103;28;20099;-69
2022/03/14 03:43:03;;;;;;;22.75;15.00;;;;;;;;;;5076830;28;20050;-69
2022/03/14 03:45:29;;;;;;;24.08;14.88;;;;;;;;;;5094977;28;20016;-69
2022/03/14 03:47:55;;;;;;;25.45;15.90;;;;;;;;;;5097171;28;20532;-69
2022/03/14 03:50:21;;;;;;;23.85;15.93;;;;;;;;;;5096654;28;20032;-69
2022/03/14 03:52:47;;;;;;;23.95;15.10;;;;;;;;;;5097143;28;20504;-69
2022/03/14 03:55:13;;;;;;;23.83;15.13;;;;;;;;;;5084762;28;20122;-69
2022/03/14 03:57:39;;;;;;;21.63;13.93;;;;;;;;;;5093974;28;20535;-70
2022/03/14 04:00:07;;;;;;;24.45;15.30;;;;;;;;;;5095377;28;20086;-69
2022/03/14 04:02:38;;;;;;;24.67;15.60;;;;;;;;;;5097073;28;20024;-69
2022/03/14 04:05:05;;;;;;;24.52;15.60;;;;;;;;;;5096782;28;20073;-69
2022/03/14 04:07:32;;;;;;;24.48;15.15;;;;;;;;;;5096676;28;20027;-69
2022/03/14 04:09:59;;;;;;;26.30;15.68;;;;;;;;;;5093362;28;20020;-69
2022/03/14 04:12:26;;;;;;;22.05;14.95;;;;;;;;;;5111534;28;20020;-69
2022/03/14 04:14:52;;;;;;;24.77;15.90;;;;;;;;;;5097203;28;20067;-69
2022/03/14 04:17:19;;;;;;;22.73;14.95;;;;;;;;;;5097005;28;20020;-69
2022/03/14 04:19:45;;;;;;;22.65;14.65;;;;;;;;;;5078836;28;20111;-69
2022/03/14 04:22:13;;;;;;;25.50;14.40;;;;;;;;;;5076637;28;20039;-69
2022/03/14 04:24:39;;;;;;;24.40;15.77;;;;;;;;;;5075836;28;20050;-69
2022/03/14 04:27:05;;;;;;;25.30;16.33;;;;;;;;;;5077863;28;20089;-69
2022/03/14 04:29:31;;;;;;;22.05;14.60;;;;;;;;;;5078639;28;20036;-69
2022/03/14 04:31:57;;;;;;;22.55;15.05;;;;;;;;;;5096416;28;20028;-69
2022/03/14 04:34:23;;;;;;;26.67;16.60;;;;;;;;;;5077597;28;20571;-69
2022/03/14 04:36:52;;;;;;;24.77;16.05;;;;;;;;;;5092193;28;20024;-69
2022/03/14 04:39:19;;;;;;;24.60;15.88;;;;;;;;;;5093586;28;20480;-69
2022/03/14 04:41:45;;;;;;;23.23;15.70;;;;;;;;;;5089753;28;20042;-69
2022/03/14 04:44:11;;;;;;;22.50;15.05;;;;;;;;;;5101338;28;20020;-69
2022/03/14 04:46:37;;;;;;;23.38;15.25;;;;;;;;;;5096083;28;20553;-69
2022/03/14 04:49:04;;;;;;;23.63;15.55;;;;;;;;;;5093177;28;20035;-69
2022/03/14 04:51:33;;;;;;;24.77;15.83;;;;;;;;;;5075816;28;20370;-69
2022/03/14 04:53:59;;;;;;;29.58;16.30;;;;;;;;;;5099820;28;20496;-68
2022/03/14 04:56:26;;;;;;;25.40;15.60;;;;;;;;;;5083953;28;20135;-69
2022/03/14 04:58:52;;;;;;;26.42;16.52;;;;;;;;;;5078696;28;20026;-69
2022/03/14 05:01:22;;;;;;;26.85;17.08;;;;;;;;;;5077912;28;20023;-69
2022/03/14 05:03:49;;;;;;;25.20;17.10;;;;;;;;;;5091873;28;20069;-68
2022/03/14 05:06:16;;;;;;;28.83;17.77;;;;;;;;;;5095871;28;20388;-68
2022/03/14 05:08:42;;;;;;;25.60;16.38;;;;;;;;;;5095796;28;20093;-69
2022/03/14 05:11:09;;;;;;;24.25;16.75;;;;;;;;;;5095993;28;20101;-68
2022/03/14 05:13:35;;;;;;;26.13;16.25;;;;;;;;;;5078620;28;20023;-67
2022/03/14 05:16:01;;;;;;;25.88;16.08;;;;;;;;;;5093405;28;20020;-68
2022/03/14 05:18:27;;;;;;;23.42;14.73;;;;;;;;;;5106917;28;20015;-68
2022/03/14 05:20:53;;;;;;;25.30;16.23;;;;;;;;;;5077785;28;20024;-67
2022/03/14 05:23:20;;;;;;;22.90;15.25;;;;;;;;;;5096076;28;20016;-70
2022/03/14 05:25:46;;;;;;;25.80;15.75;;;;;;;;;;5096155;28;20020;-68
2022/03/14 05:28:12;;;;;;;27.45;16.73;;;;;;;;;;5094036;28;20039;-67
2022/03/14 05:30:38;;;;;;;24.40;16.20;;;;;;;;;;5075054;28;20032;-67
2022/03/14 05:33:04;;;;;;;26.67;16.95;;;;;;;;;;5076849;28;20027;-67
2022/03/14 05:35:30;;;;;;;23.98;15.75;;;;;;;;;;5095606;28;20020;-67
2022/03/14 05:37:57;;;;;;;25.33;15.65;;;;;;;;;;5096137;28;20516;-69
2022/03/14 05:40:23;;;;;;;24.40;15.77;;;;;;;;;;5095271;28;20051;-68
2022/03/14 05:42:50;;;;;;;23.25;15.90;;;;;;;;;;5091141;28;20035;-67
2022/03/14 05:45:16;;;;;;;26.05;17.02;;;;;;;;;;5078840;28;20027;-67
2022/03/14 05:47:42;;;;;;;26.17;16.50;;;;;;;;;;5079077;28;20426;-67
2022/03/14 05:50:08;;;;;;;24.63;15.88;;;;;;;;;;5081488;28;20085;-67
2022/03/14 05:52:34;;;;;;;27.65;16.85;;;;;;;;;;5099707;28;20024;-66
2022/03/14 05:55:00;;;;;;;23.00;16.05;;;;;;;;;;5103487;28;20304;-66
2022/03/14 05:57:26;;;;;;;24.38;16.08;;;;;;;;;;5096941;28;20024;-67
2022/03/14 05:59:52;;;;;;;26.85;17.30;;;;;;;;;;5099818;28;20594;-67
2022/03/14 06:02:22;;;;;;;25.90;15.50;;;;;;;;;;5099110;28;20020;-67
2022/03/14 06:04:48;;;;;;;25.70;16.25;;;;;;;;;;5081609;28;20051;-67
2022/03/14 06:07:15;;;;;;;26.63;15.98;;;;;;;;;;5097516;28;20036;-67
2022/03/14 06:09:41;;;;;;;25.20;16.33;;;;;;;;;;5077956;28;20047;-67
2022/03/14 06:12:07;;;;;;;28.65;17.45;;;;;;;;;;5098673;28;20060;-67
2022/03/14 06:14:34;;;;;;;26.05;15.82;;;;;;;;;;5081724;28;20016;-67
2022/03/14 06:17:00;;;;;;;26.25;16.25;;;;;;;;;;5080542;28;20020;-67
2022/03/14 06:19:26;;;;;;;23.40;15.90;;;;;;;;;;5099253;28;20019;-67
2022/03/14 06:21:52;;;;;;;27.30;15.88;;;;;;;;;;5094521;28;20026;-67
2022/03/14 06:24:18;;;;;;;23.88;15.68;;;;;;;;;;5079717;28;20388;-68
2022/03/14 06:26:44;;;;;;;24.65;15.60;;;;;;;;;;5098499;28;20044;-69
2022/03/14 06:29:10;;;;;;;27.05;16.65;;;;;;;;;;5098310;28;20047;-69
2022/03/14 06:31:36;;;;;;;23.85;16.48;;;;;;;;;;5098027;28;20027;-68
2022/03/14 06:34:02;;;;;;;27.40;17.13;;;;;;;;;;5095588;28;20020;-68
2022/03/14 06:36:29;;;;;;;23.08;16.30;;;;;;;;;;5109927;28;20031;-68
2022/03/14 06:38:59;;;;;;;27.60;16.08;;;;;;;;;;5091362;28;20032;-68
2022/03/14 06:41:26;;;;;;;24.52;15.93;;;;;;;;;;5097530;28;20049;-68
2022/03/14 06:43:52;;;;;;;25.60;16.55;;;;;;;;;;5098771;28;20358;-69
2022/03/14 06:46:19;;;;;;;25.77;15.82;;;;;;;;;;5097313;28;20024;-68
2022/03/14 06:48:46;;;;;;;22.02;14.60;;;;;;;;;;5095126;28;20489;-68
2022/03/14 06:51:12;;;;;;;23.27;14.90;;;;;;;;;;5097393;28;20524;-69
2022/03/14 06:53:38;;;;;;;25.55;15.63;;;;;;;;;;5099304;28;20016;-68
2022/03/14 06:56:05;;;;;;;22.67;14.07;;;;;;;;;;5103968;28;20168;-68
2022/03/14 06:58:31;;;;;;;22.60;15.00;;;;;;;;;;5106003;28;20066;-68
2022/03/14 07:00:57;;;;;;;24.80;15.38;;;;;;;;;;5112978;27;20090;-69
2022/03/14 07:03:23;;;;;;;23.45;15.15;;;;;;;;;;5111783;28;20472;-69
2022/03/14 07:05:49;;;;;;;26.58;16.48;;;;;;;;;;5093369;28;20062;-68
2022/03/14 07:08:17;;;;;;;24.60;16.52;;;;;;;;;;5110819;28;20036;-68
2022/03/14 07:10:43;;;;;;;22.13;16.10;;;;;;;;;;5092906;28;20053;-68
2022/03/14 07:13:09;;;;;;;23.88;16.55;;;;;;;;;;5110777;28;20062;-68
2022/03/14 07:15:36;;;;;;;25.42;15.82;;;;;;;;;;5111848;28;20417;-69
2022/03/14 07:18:02;;;;;;;21.55;14.68;;;;;;;;;;5097055;28;20499;-69
2022/03/14 07:20:28;;;;;;;21.00;15.05;;;;;;;;;;5097975;28;20047;-68
2022/03/14 07:22:58;;;;;;;22.35;15.73;;;;;;;;;;5097104;28;20467;-69
2022/03/14 07:25:34;;;;;;;25.08;15.90;;;;;;;;;;5097793;28;20027;-68
2022/03/14 07:28:05;;;;;;;22.83;16.00;;;;;;;;;;5076675;28;20653;-68
2022/03/14 07:30:31;;;;;;;22.30;15.45;;;;;;;;;;5094399;28;20516;-68
2022/03/14 07:32:57;;;;;;;22.35;14.80;;;;;;;;;;5105283;28;20100;-68
2022/03/14 07:35:24;;;;;;;27.33;14.82;;;;;;;;;;5110923;28;20069;-68
2022/03/14 07:37:50;;;;;;;23.42;15.60;;;;;;;;;;5109102;28;20031;-68
2022/03/14 07:40:17;;;;;;;24.73;15.95;;;;;;;;;;5093002;28;20024;-68
2022/03/14 07:42:44;;;;;;;23.38;15.23;;;;;;;;;;5093662;28;20039;-68
2022/03/14 07:45:11;;;;;;;22.30;15.43;;;;;;;;;;5106980;28;20060;-68
2022/03/14 07:47:37;;;;;;;24.00;15.40;;;;;;;;;;5109282;28;20063;-68
2022/03/14 07:50:07;;;;;;;21.45;14.85;;;;;;;;;;5090530;28;20082;-68
2022/03/14 07:52:33;;;;;;;23.38;15.13;;;;;;;;;;5109611;28;20027;-68
2022/03/14 07:55:00;;;;;;;20.45;14.95;;;;;;;;;;5103204;28;20020;-68
2022/03/14 07:57:27;;;;;;;24.90;15.45;;;;;;;;;;5094647;28;20028;-68
2022/03/14 07:59:53;;;;;;;21.35;14.38;;;;;;;;;;5097312;28;20021;-68
2022/03/14 08:02:20;;;;;;;24.15;14.98;;;;;;;;;;5079346;28;20035;-68
2022/03/14 08:04:46;;;;;;;19.90;14.02;;;;;;;;;;5079024;28;20032;-69
2022/03/14 08:07:13;;;;;;;22.48;14.30;;;;;;;;;;5094681;28;20401;-68
2022/03/14 08:09:39;;;;;;;20.20;14.40;;;;;;;;;;5094277;28;20020;-68
2022/03/14 08:12:05;;;;;;;22.60;14.90;;;;;;;;;;5078066;28;20023;-68
2022/03/14 08:14:32;;;;;;;20.00;13.45;;;;;;;;;;5103170;28;20102;-68
2022/03/14 08:16:58;;;;;;;20.40;13.50;;;;;;;;;;5103149;28;20028;-68
2022/03/14 08:19:24;;;;;;;19.58;13.75;;;;;;;;;;5096921;28;20016;-68
2022/03/14 08:21:51;;;;;;;20.52;12.77;;;;;;;;;;5074234;28;20054;-68
2022/03/14 08:24:17;;;;;;;20.83;13.48;;;;;;;;;;5077561;28;20024;-68
2022/03/14 08:26:43;;;;;;;20.48;13.70;;;;;;;;;;5078970;28;20032;-68
2022/03/14 08:29:09;;;;;;;19.27;12.07;;;;;;;;;;5096072;28;20120;-68
2022/03/14 08:31:35;;;;;;;20.25;14.00;;;;;;;;;;5095417;28;20127;-68
2022/03/14 08:34:01;;;;;;;22.88;14.30;;;;;;;;;;5108194;28;20035;-68
2022/03/14 08:36:28;;;;;;;20.70;12.80;;;;;;;;;;5094168;28;20016;-68
2022/03/14 08:38:54;;;;;;;19.80;12.27;;;;;;;;;;5109335;28;20053;-69
2022/03/14 08:41:20;;;;;;;19.48;12.50;;;;;;;;;;5100228;28;20016;-69
2022/03/14 08:43:47;;;;;;;18.55;12.80;;;;;;;;;;5090099;28;20388;-69
2022/03/14 08:46:15;;;;;;;19.67;13.05;;;;;;;;;;5077167;28;20057;-68
2022/03/14 08:48:41;;;;;;;17.10;11.95;;;;;;;;;;5093425;28;20176;-69
2022/03/14 08:51:08;;;;;;;18.33;12.88;;;;;;;;;;5095252;28;20065;-69
2022/03/14 08:53:34;;;;;;;20.27;13.55;;;;;;;;;;5096905;28;20385;-69
2022/03/14 08:56:04;;;;;;;20.02;13.57;;;;;;;;;;5087155;28;20027;-68
2022/03/14 08:58:30;;;;;;;18.48;12.48;;;;;;;;;;5096467;28;20016;-68
2022/03/14 09:00:59;;;;;;;20.00;13.50;;;;;;;;;;5091902;28;20034;-68
2022/03/14 09:03:25;;;;;;;;;;;;;;;;;;5080025;28;20016;-68
2022/03/14 09:05:51;;;;;;;22.52;13.75;;;;;;;;;;5109578;28;19952;-68
2022/03/14 09:08:18;;;;;;;18.65;13.32;;;;;;;;;;5108685;28;20036;-68
2022/03/14 09:10:46;;;;;;;17.33;12.30;;;;;;;;;;5091279;28;20552;-68
2022/03/14 09:13:13;;;;;;;;;;;;;;;;;;5106139;28;20110;-68
2022/03/14 09:15:39;;;;;;;19.10;13.50;;;;;;;;;;5091491;28;19991;-68
2022/03/14 09:18:06;;;;;;;20.20;13.10;;;;;;;;;;5091851;28;20156;-68
2022/03/14 09:20:34;;;;;;;18.88;13.63;;;;;;;;;;5109739;28;20437;-68
2022/03/14 09:23:00;;;;;;;16.38;12.13;;;;;;;;;;5112708;28;20016;-68
2022/03/14 09:25:26;;;;;;;16.88;11.45;;;;;;;;;;5111431;28;20420;-68
2022/03/14 09:27:52;;;;;;;17.27;12.23;;;;;;;;;;5095498;28;20036;-68
2022/03/14 09:30:18;;;;;;;20.50;12.45;;;;;;;;;;5111097;28;20043;-68
2022/03/14 09:32:44;;;;;;;17.75;12.10;;;;;;;;;;5100121;28;20032;-68
2022/03/14 09:35:11;;;;;;;17.50;12.70;;;;;;;;;;5100030;28;20027;-69
2022/03/14 09:37:38;;;;;;;15.75;10.95;;;;;;;;;;5099611;28;20035;-68
2022/03/14 09:40:06;;;;;;;17.05;12.05;;;;;;;;;;5111096;28;20024;-68
2022/03/14 09:42:34;;;;;;;14.48;10.85;;;;;;;;;;5097692;28;20027;-69
2022/03/14 09:45:00;;;;;;;14.27;9.90;;;;;;;;;;5092012;28;20126;-68
2022/03/14 09:47:26;;;;;;;13.77;9.85;;;;;;;;;;5085045;28;20118;-68
2022/03/14 09:49:56;;;;;;;13.05;9.48;;;;;;;;;;5101071;28;20491;-68
2022/03/14 09:52:22;;;;;;;13.80;9.10;;;;;;;;;;5111575;28;20046;-68
2022/03/14 09:54:51;;;;;;;14.23;10.25;;;;;;;;;;5112242;28;20024;-67
2022/03/14 09:57:17;;;;;;;14.68;9.48;;;;;;;;;;5113281;28;20408;-67
2022/03/14 09:59:44;;;;;;;13.13;10.00;;;;;;;;;;5095595;28;20019;-67
2022/03/14 10:02:13;;;;;;;12.82;10.00;;;;;;;;;;5112232;28;20031;-67
2022/03/14 10:04:39;;;;;;;13.27;8.95;;;;;;;;;;5107524;28;20028;-67
2022/03/14 10:07:08;;;;;;;15.98;10.48;;;;;;;;;;5111038;28;20067;-67
2022/03/14 10:09:35;;;;;;;12.93;8.50;;;;;;;;;;5096863;28;20426;-67
2022/03/14 10:12:01;;;;;;;16.35;10.13;;;;;;;;;;5098923;28;20063;-67
2022/03/14 10:14:27;;;;;;;16.00;10.23;;;;;;;;;;5098945;28;20474;-67
2022/03/14 10:16:56;;;;;;;17.65;10.27;;;;;;;;;;5099136;28;20095;-68
2022/03/14 10:19:33;;;;;;;12.45;8.63;;;;;;;;;;5098798;28;20019;-68
2022/03/14 10:22:13;;;;;;;13.10;9.65;;;;;;;;;;5095655;28;20085;-68
2022/03/14 10:24:39;;;;;;;12.50;9.35;;;;;;;;;;5096288;28;20036;-68
2022/03/14 10:27:06;;;;;;;14.48;10.20;;;;;;;;;;5098205;28;20485;-69
2022/03/14 10:29:32;;;;;;;14.60;9.00;;;;;;;;;;5099034;28;20044;-68
2022/03/14 10:31:59;;;;;;;14.25;9.52;;;;;;;;;;5102554;28;20050;-68
2022/03/14 10:34:25;;;;;;;15.13;10.10;;;;;;;;;;5110151;28;20016;-68
2022/03/14 10:36:53;;;;;;;11.63;8.32;;;;;;;;;;5094683;28;20020;-68
2022/03/14 10:39:25;;;;;;;10.45;7.40;;;;;;;;;;5109707;28;20484;-69
2022/03/14 10:42:07;;;;;;;11.10;8.25;;;;;;;;;;5099280;28;20111;-68
2022/03/14 10:44:34;;;;;;;12.27;8.43;;;;;;;;;;5111240;28;20050;-68
2022/03/14 10:47:01;;;;;;;13.25;8.85;;;;;;;;;;5110598;28;20227;-68
2022/03/14 10:49:28;;;;;;;12.38;8.55;;;;;;;;;;5111650;28;20080;-72
2022/03/14 10:51:58;;;;;;;12.10;8.73;;;;;;;;;;5111062;28;20023;-70
2022/03/14 10:54:24;;;;;;;12.00;9.02;;;;;;;;;;5120965;27;20019;-69
2022/03/14 10:57:05;;;;;;;11.90;8.10;;;;;;;;;;5087955;28;20059;-68
2022/03/14 10:59:44;;;;;;;11.55;8.40;;;;;;;;;;5100481;28;20028;-70
2022/03/14 11:02:12;;;;;;;11.75;8.77;;;;;;;;;;5097985;28;20020;-68
2022/03/14 11:04:48;;;;;;;12.20;8.77;;;;;;;;;;5098646;28;20034;-69
2022/03/14 11:07:16;;;;;;;12.88;8.50;;;;;;;;;;5095172;28;20114;-68
2022/03/14 11:09:43;;;;;;;10.77;7.95;;;;;;;;;;5109884;28;20026;-69
2022/03/14 11:12:11;;;;;;;11.73;8.40;;;;;;;;;;5097848;28;20031;-69
2022/03/14 11:14:37;;;;;;;10.95;8.23;;;;;;;;;;5097708;28;20477;-69
2022/03/14 11:17:29;;;;;;;12.27;7.47;;;;;;;;;;5097983;28;20032;-67
2022/03/14 11:19:56;;;;;;;9.10;6.40;;;;;;;;;;5094773;28;20123;-69
2022/03/14 11:22:23;;;;;;;9.27;6.82;;;;;;;;;;5095243;27;20076;-68
2022/03/14 11:24:51;;;;;;;9.48;7.03;;;;;;;;;;5106673;28;20122;-69
2022/03/14 11:27:23;;;;;;;11.18;6.90;;;;;;;;;;5092563;28;20500;-68
2022/03/14 11:29:49;;;;;;;10.63;6.88;;;;;;;;;;5089280;28;20040;-67
2022/03/14 11:32:17;;;;;;;9.75;6.70;;;;;;;;;;5088687;28;20432;-68
2022/03/14 11:34:43;;;;;;;11.40;7.30;;;;;;;;;;5086150;28;20085;-68
2022/03/14 11:37:10;;;;;;;10.90;7.47;;;;;;;;;;5072706;28;20303;-68
2022/03/14 11:39:36;;;;;;;9.70;6.05;;;;;;;;;;5072958;28;20032;-69
2022/03/14 11:42:03;;;;;;;8.35;6.07;;;;;;;;;;5093373;28;20460;-68
2022/03/14 11:44:29;;;;;;;8.35;5.28;;;;;;;;;;5096958;28;20039;-68
2022/03/14 11:46:56;;;;;;;8.68;6.25;;;;;;;;;;5099971;28;20148;-68
2022/03/14 11:49:24;;;;;;;9.68;6.90;;;;;;;;;;5092841;28;20028;-69
2022/03/14 11:51:50;;;;;;;8.07;6.13;;;;;;;;;;5070378;28;20032;-69
2022/03/14 11:54:16;;;;;;;8.98;6.50;;;;;;;;;;5098736;28;20020;-68
2022/03/14 11:56:58;;;;;;;9.63;6.50;;;;;;;;;;5093547;28;20032;-69
2022/03/14 11:59:27;;;;;;;8.82;6.32;;;;;;;;;;5075468;28;20165;-69
2022/03/14 12:01:55;;;;;;;8.27;5.78;;;;;;;;;;5093462;28;20032;-69
2022/03/14 12:04:21;;;;;;;;;;;;;;;;;;5092544;28;20031;-68
2022/03/14 12:06:47;;;;;;;7.75;5.45;;;;;;;;;;5089289;28;19959;-68
2022/03/14 12:09:26;;;;;;;8.27;5.57;;;;;;;;;;5091826;28;20055;-68
2022/03/14 12:11:56;;;;;;;7.40;5.00;;;;;;;;;;5111599;27;20035;-69
2022/03/14 12:14:42;;;;;;;8.60;5.45;;;;;;;;;;5081859;28;20088;-69
2022/03/14 12:17:14;;;;;;;10.65;6.57;;;;;;;;;;5099452;28;20034;-70
2022/03/14 12:19:42;;;;;;;9.63;6.88;;;;;;;;;;5106248;28;20149;-73
2022/03/14 12:22:12;;;;;;;10.43;6.68;;;;;;;;;;5076241;28;20032;-73
2022/03/14 12:24:38;;;;;;;12.02;7.40;;;;;;;;;;5093196;28;20020;-73
2022/03/14 12:27:16;;;;;;;9.02;6.68;;;;;;;;;;5107192;28;20512;-74
2022/03/14 12:29:43;;;;;;;10.90;7.50;;;;;;;;;;5097727;28;20100;-73
2022/03/14 12:32:28;;;;;;;8.80;6.22;;;;;;;;;;5097359;28;20027;-75
2022/03/14 12:34:57;;;;;;;11.07;7.78;;;;;;;;;;5096701;28;20020;-73
2022/03/14 12:37:34;;;;;;;10.38;6.30;;;;;;;;;;5096494;28;20084;-73
2022/03/14 12:40:00;;;;;;;9.30;5.93;;;;;;;;;;5092702;28;20035;-73
2022/03/14 12:42:26;;;;;;;9.32;6.40;;;;;;;;;;5091691;28;20035;-73
2022/03/14 12:45:22;;;;;;;8.57;6.25;;;;;;;;;;5096830;28;20362;-73
2022/03/14 12:47:52;;;;;;;9.10;6.90;;;;;;;;;;5083854;28;20056;-74
2022/03/14 12:50:37;;;;;;;9.52;6.38;;;;;;;;;;5078574;28;20060;-74
2022/03/14 12:53:03;;;;;;;11.20;6.28;;;;;;;;;;5096052;28;20035;-74
2022/03/14 12:55:29;;;;;;;9.02;6.38;;;;;;;;;;5103055;28;20026;-74
2022/03/14 12:57:55;;;;;;;8.10;5.88;;;;;;;;;;5093590;28;20024;-74
2022/03/14 13:00:21;;;;;;;8.52;6.15;;;;;;;;;;5094812;28;20178;-74
2022/03/14 13:02:47;;;;;;;7.65;5.70;;;;;;;;;;5095375;28;20055;-73
2022/03/14 13:05:18;;;;;;;9.13;6.45;;;;;;;;;;5075009;28;20027;-75
2022/03/14 13:07:44;;;;;;;8.98;5.95;;;;;;;;;;5079200;28;20039;-74
2022/03/14 13:10:10;;;;;;;8.18;5.65;;;;;;;;;;5093949;28;20024;-74
2022/03/14 13:12:36;;;;;;;8.88;5.68;;;;;;;;;;5093153;28;20173;-74
2022/03/14 13:15:12;;;;;;;8.15;5.38;;;;;;;;;;5086170;28;20035;-74
2022/03/14 13:17:49;;;;;;;7.40;5.22;;;;;;;;;;5104668;28;20465;-75
2022/03/14 13:20:22;;;;;;;7.53;5.45;;;;;;;;;;5101486;28;20035;-74
2022/03/14 13:22:48;;;;;;;10.30;7.57;;;;;;;;;;5096165;28;20026;-72
2022/03/14 13:25:28;;;;;;;8.13;4.60;;;;;;;;;;5077101;28;20036;-75
2022/03/14 13:27:54;;;;;;;7.53;5.80;;;;;;;;;;5092109;28;20443;-73
2022/03/14 13:30:20;;;;;;;8.75;5.93;;;;;;;;;;5095468;28;20513;-74
2022/03/14 13:32:46;;;;;;;10.48;7.82;;;;;;;;;;5075476;28;20077;-73
2022/03/14 13:35:13;;;;;;;11.65;8.38;;;;;;;;;;5076787;28;20028;-73
2022/03/14 13:37:43;;;;;;;10.55;6.78;;;;;;;;;;5077853;28;20362;-74
2022/03/14 13:40:29;;;;;;;10.18;6.60;;;;;;;;;;5093661;28;20578;-74
2022/03/14 13:42:56;;;;;;;10.98;6.78;;;;;;;;;;5107209;28;20046;-74
2022/03/14 13:45:24;;;;;;;9.80;7.10;;;;;;;;;;5075735;28;20089;-73
2022/03/14 13:47:57;;;;;;;10.48;7.57;;;;;;;;;;5104274;28;20038;-73
2022/03/14 13:50:23;;;;;;;14.38;8.98;;;;;;;;;;5081465;28;20028;-73
2022/03/14 13:52:51;;;;;;;10.82;7.47;;;;;;;;;;5078035;28;20028;-74
2022/03/14 13:55:17;;;;;;;10.65;7.85;;;;;;;;;;5101383;28;20016;-74
2022/03/14 13:57:45;;;;;;;11.32;7.25;;;;;;;;;;5091790;28;20035;-74
2022/03/14 14:00:14;;;;;;;10.18;7.63;;;;;;;;;;5076522;28;20020;-74
2022/03/14 14:02:41;;;;;;;10.10;7.30;;;;;;;;;;5077947;28;20123;-74
2022/03/14 14:05:08;;;;;;;10.35;6.88;;;;;;;;;;5095165;28;20499;-74
2022/03/14 14:07:35;;;;;;;10.43;6.82;;;;;;;;;;5098693;28;20092;-74
2022/03/14 14:10:09;;;;;;;9.63;7.10;;;;;;;;;;5094797;28;20024;-74
2022/03/14 14:12:35;;;;;;;10.77;6.18;;;;;;;;;;5096338;28;20027;-74
2022/03/14 14:15:02;;;;;;;9.75;6.63;;;;;;;;;;5098235;28;20077;-74
2022/03/14 14:17:35;;;;;;;10.68;6.72;;;;;;;;;;5081156;28;20024;-74
2022/03/14 14:20:01;;;;;;;9.52;6.55;;;;;;;;;;5098779;28;20024;-74
2022/03/14 14:22:37;;;;;;;9.85;6.38;;;;;;;;;;5095756;28;20679;-74
2022/03/14 14:25:05;;;;;;;9.15;5.93;;;;;;;;;;5110162;28;20012;-74